Time;durP1;ratioP1;P1;durP2;ratioP2;P2;SDS_P1;SDS_P2;PMS_P1;PMS_P2;Temp;Humidity;BMP_temperature;BMP_pressure;BME280_temperature;BME280_humidity;BME280_pressure;Samples;Min_cycle;Max_cycle;Signal;HPM_P1;HPM_P2
2022/07/14 00:00:29;;;;;;;1.50;1.40;;;24.00;52.30;;;;;;4975792;28;20193;-69
2022/07/14 00:02:55;;;;;;;1.48;1.38;;;24.00;52.40;;;;;;4978488;28;20244;-69
2022/07/14 00:05:24;;;;;;;1.50;1.40;;;24.00;52.40;;;;;;4980346;28;20197;-69
2022/07/14 00:07:52;;;;;;;1.70;1.60;;;24.00;52.50;;;;;;4979600;28;20229;-69
2022/07/14 00:10:19;;;;;;;1.55;1.45;;;23.90;52.40;;;;;;4979477;28;20197;-69
2022/07/14 00:12:45;;;;;;;1.50;1.40;;;24.00;52.40;;;;;;4979462;28;20585;-69
2022/07/14 00:15:13;;;;;;;2.63;1.50;;;24.00;52.50;;;;;;4979495;28;20196;-70
2022/07/14 00:17:40;;;;;;;1.70;1.40;;;24.00;52.50;;;;;;4979471;28;20201;-71
2022/07/14 00:20:07;;;;;;;1.40;1.30;;;24.00;52.50;;;;;;4979317;28;20208;-69
2022/07/14 00:22:36;;;;;;;1.50;1.40;;;23.90;52.40;;;;;;4979346;28;20229;-70
2022/07/14 00:25:03;;;;;;;1.40;1.30;;;23.90;52.40;;;;;;4996913;28;20273;-70
2022/07/14 00:27:30;;;;;;;1.60;1.50;;;24.00;52.50;;;;;;4979229;28;20258;-69
2022/07/14 00:29:58;;;;;;;1.40;1.30;;;23.90;52.50;;;;;;4979186;28;20202;-71
2022/07/14 00:32:25;;;;;;;1.50;1.40;;;23.90;52.50;;;;;;4979082;28;20248;-69
2022/07/14 00:34:52;;;;;;;1.52;1.42;;;23.90;52.50;;;;;;4979075;28;20296;-69
2022/07/14 00:37:19;;;;;;;1.63;1.40;;;23.90;52.50;;;;;;4979206;28;20215;-69
2022/07/14 00:39:56;;;;;;;1.73;1.60;;;23.90;52.50;;;;;;4979015;28;20208;-69
2022/07/14 00:42:29;;;;;;;1.50;1.40;;;23.90;52.60;;;;;;4979042;28;20275;-70
2022/07/14 00:44:56;;;;;;;1.30;1.20;;;23.90;52.60;;;;;;4996277;28;20189;-69
2022/07/14 00:47:23;;;;;;;1.50;1.40;;;23.90;52.60;;;;;;4978924;28;20197;-69
2022/07/14 00:49:52;;;;;;;1.50;1.40;;;23.80;52.50;;;;;;4978814;28;20197;-69
2022/07/14 00:52:20;;;;;;;1.55;1.45;;;23.80;52.50;;;;;;4978670;28;20214;-70
2022/07/14 00:54:48;;;;;;;1.90;1.45;;;23.90;52.60;;;;;;4995880;28;20201;-70
2022/07/14 00:57:15;;;;;;;1.60;1.50;;;23.80;52.60;;;;;;4995954;28;20193;-69
2022/07/14 00:59:43;;;;;;;1.58;1.48;;;23.80;52.60;;;;;;4978472;28;20697;-70
2022/07/14 01:02:10;;;;;;;1.50;1.40;;;23.80;52.60;;;;;;4978297;28;20690;-70
2022/07/14 01:04:38;;;;;;;1.52;1.42;;;23.80;52.70;;;;;;4995940;28;20193;-70
2022/07/14 01:07:05;;;;;;;1.45;1.35;;;23.80;52.70;;;;;;4978316;28;20604;-69
2022/07/14 01:09:32;;;;;;;1.15;1.13;;;23.80;52.70;;;;;;4978929;28;20193;-70
2022/07/14 01:12:01;;;;;;;1.73;1.63;;;23.80;52.70;;;;;;4978263;28;20237;-70
2022/07/14 01:14:28;;;;;;;1.65;1.55;;;23.70;52.70;;;;;;4977588;28;20219;-70
2022/07/14 01:16:55;;;;;;;2.65;1.50;;;23.80;52.80;;;;;;4978355;28;20622;-70
2022/07/14 01:19:23;;;;;;;1.75;1.20;;;23.70;52.80;;;;;;4978298;28;20229;-70
2022/07/14 01:21:52;;;;;;;1.60;1.30;;;23.70;52.80;;;;;;4978415;28;20253;-69
2022/07/14 01:24:19;;;;;;;1.30;1.20;;;23.70;52.90;;;;;;4978212;28;20551;-69
2022/07/14 01:26:47;;;;;;;1.60;1.50;;;23.70;52.90;;;;;;4978322;28;20556;-69
2022/07/14 01:29:14;;;;;;;1.88;1.42;;;23.70;52.90;;;;;;4995458;28;20190;-69
2022/07/14 01:31:41;;;;;;;1.23;1.13;;;23.70;53.00;;;;;;4995354;28;20218;-70
2022/07/14 01:34:08;;;;;;;1.48;1.38;;;23.70;53.00;;;;;;4978121;28;20204;-69
2022/07/14 01:36:36;;;;;;;1.40;1.30;;;23.70;53.00;;;;;;4977779;28;20212;-69
2022/07/14 01:39:05;;;;;;;1.40;1.30;;;23.70;53.10;;;;;;4978024;28;20193;-69
2022/07/14 01:41:32;;;;;;;1.60;1.50;;;23.60;52.90;;;;;;4978343;28;20272;-69
2022/07/14 01:44:00;;;;;;;1.40;1.30;;;23.70;53.10;;;;;;4978554;28;20222;-70
2022/07/14 01:46:27;;;;;;;1.42;1.30;;;23.60;53.10;;;;;;4978065;28;20197;-70
2022/07/14 01:48:54;;;;;;;1.40;1.30;;;23.60;53.00;;;;;;4978103;28;20208;-69
2022/07/14 01:51:24;;;;;;;1.40;1.30;;;23.60;53.10;;;;;;4977794;28;20675;-69
2022/07/14 01:53:51;;;;;;;1.15;1.10;;;23.60;53.10;;;;;;4977828;28;20221;-70
2022/07/14 01:56:19;;;;;;;1.33;1.30;;;23.60;53.10;;;;;;4977629;28;20252;-69
2022/07/14 01:58:50;;;;;;;1.30;1.20;;;23.60;53.10;;;;;;4977741;28;20197;-70
2022/07/14 02:04:02;;;;;;;1.40;1.30;;;23.50;53.00;;;;;;4977407;28;20224;-69
2022/07/14 02:06:29;;;;;;;1.27;1.17;;;23.50;53.00;;;;;;4977505;28;20264;-69
2022/07/14 02:08:56;;;;;;;1.23;1.20;;;23.50;53.10;;;;;;4977476;28;20205;-70
2022/07/14 02:14:09;;;;;;;1.35;1.30;;;23.50;53.10;;;;;;4978112;28;20590;-69
2022/07/14 02:16:55;;;;;;;1.38;1.27;;;23.50;53.30;;;;;;4995095;28;20185;-69
2022/07/14 02:19:23;;;;;;;1.27;1.20;;;23.50;53.30;;;;;;4977205;28;20200;-69
2022/07/14 02:21:51;;;;;;;1.40;1.30;;;23.40;53.30;;;;;;5174008;23;20291;-73
2022/07/14 02:24:18;;;;;;;1.38;1.30;;;23.40;53.30;;;;;;4977306;28;20241;-73
2022/07/14 02:26:46;;;;;;;2.05;1.55;;;23.40;53.30;;;;;;4977275;28;20202;-72
2022/07/14 02:29:14;;;;;;;1.65;1.23;;;23.40;53.30;;;;;;4977294;28;20201;-73
2022/07/14 02:31:44;;;;;;;1.20;1.20;;;23.40;53.40;;;;;;4977334;28;20221;-73
2022/07/14 02:34:12;;;;;;;1.40;1.30;;;23.40;53.40;;;;;;4977588;28;20272;-74
2022/07/14 02:36:39;;;;;;;1.25;1.25;;;23.40;53.50;;;;;;4977171;28;20666;-73
2022/07/14 02:39:06;;;;;;;1.38;1.27;;;23.40;53.50;;;;;;4976953;28;20201;-73
2022/07/14 02:41:34;;;;;;;1.40;1.30;;;23.40;53.50;;;;;;4976921;28;20236;-75
2022/07/14 02:44:02;;;;;;;1.33;1.30;;;23.40;53.50;;;;;;4977228;28;20217;-73
2022/07/14 02:46:30;;;;;;;1.42;1.33;;;23.30;53.50;;;;;;4977092;28;20276;-73
2022/07/14 02:48:57;;;;;;;1.30;1.20;;;23.30;53.50;;;;;;4976928;28;20197;-73
2022/07/14 02:51:26;;;;;;;1.50;1.40;;;23.30;53.50;;;;;;4977068;28;20228;-73
2022/07/14 02:53:53;;;;;;;1.38;1.27;;;23.30;53.60;;;;;;4977023;28;20201;-73
2022/07/14 02:56:21;;;;;;;1.25;1.23;;;23.30;53.70;;;;;;4977324;28;20201;-73
2022/07/14 02:58:49;;;;;;;2.00;1.25;;;23.30;53.70;;;;;;4977964;28;20197;-73
2022/07/14 03:01:18;;;;;;;1.45;1.35;;;23.30;53.70;;;;;;4977093;28;20218;-73
2022/07/14 03:03:45;;;;;;;1.52;1.42;;;23.20;53.60;;;;;;4977286;28;20217;-73
2022/07/14 03:06:15;;;;;;;1.40;1.30;;;23.20;53.60;;;;;;4976780;28;20202;-73
2022/07/14 03:08:44;;;;;;;1.10;1.10;;;23.20;53.70;;;;;;4976976;28;20197;-72
2022/07/14 03:11:11;;;;;;;1.52;1.20;;;23.20;53.60;;;;;;4976739;28;20239;-73
2022/07/14 03:13:39;;;;;;;1.40;1.30;;;23.20;53.70;;;;;;4976590;28;20223;-72
2022/07/14 03:16:09;;;;;;;1.30;1.20;;;23.20;53.70;;;;;;4977665;28;20201;-73
2022/07/14 03:18:40;;;;;;;1.75;1.30;;;23.10;53.70;;;;;;4976878;28;20288;-72
2022/07/14 03:21:08;;;;;;;1.58;1.48;;;23.10;53.70;;;;;;4976657;28;20244;-73
2022/07/14 03:23:36;;;;;;;1.30;1.20;;;23.20;53.70;;;;;;4977672;28;20647;-72
2022/07/14 03:26:06;;;;;;;1.45;1.30;;;23.20;53.70;;;;;;4977548;28;20197;-74
2022/07/14 03:28:34;;;;;;;1.40;1.30;;;23.20;53.60;;;;;;4978141;28;20198;-73
2022/07/14 03:31:02;;;;;;;1.60;1.50;;;23.30;53.60;;;;;;4977948;28;20609;-73
2022/07/14 03:33:30;;;;;;;1.30;1.25;;;23.30;53.50;;;;;;4977325;28;20284;-73
2022/07/14 03:35:59;;;;;;;1.50;1.40;;;23.30;53.50;;;;;;4977574;28;20225;-73
2022/07/14 03:38:27;;;;;;;1.30;1.20;;;23.30;53.30;;;;;;4980644;28;20205;-73
2022/07/14 03:40:57;;;;;;;1.60;1.50;;;23.30;53.30;;;;;;4980694;28;20224;-73
2022/07/14 03:43:25;;;;;;;1.40;1.30;;;23.40;53.30;;;;;;4980382;28;20217;-73
2022/07/14 03:45:53;;;;;;;1.73;1.50;;;23.30;53.20;;;;;;4980420;28;20200;-73
2022/07/14 03:48:21;;;;;;;1.40;1.30;;;23.30;53.20;;;;;;4997654;28;20220;-73
2022/07/14 03:50:54;;;;;;;1.50;1.40;;;23.30;53.10;;;;;;4980283;28;20220;-73
2022/07/14 03:53:24;;;;;;;1.27;1.20;;;23.40;53.20;;;;;;4979945;28;20208;-73
2022/07/14 03:55:51;;;;;;;1.40;1.30;;;23.40;53.10;;;;;;4979946;28;20201;-73
2022/07/14 03:58:19;;;;;;;1.50;1.40;;;23.40;53.10;;;;;;4980485;28;20193;-73
2022/07/14 04:00:46;;;;;;;1.33;1.27;;;23.40;53.10;;;;;;4980068;28;20217;-74
2022/07/14 04:03:13;;;;;;;1.30;1.20;;;23.40;53.00;;;;;;4980012;28;20229;-72
2022/07/14 04:05:41;;;;;;;2.05;1.58;;;23.40;53.00;;;;;;4980002;28;20244;-73
2022/07/14 04:08:11;;;;;;;1.40;1.30;;;23.30;52.90;;;;;;4979932;28;20186;-73
2022/07/14 04:10:51;;;;;;;1.65;1.30;;;23.40;53.00;;;;;;4979545;28;20194;-73
2022/07/14 04:13:18;;;;;;;1.55;1.45;;;23.30;52.90;;;;;;4979711;28;20617;-73
2022/07/14 04:15:45;;;;;;;1.48;1.38;;;23.30;52.90;;;;;;4979634;28;20684;-73
2022/07/14 04:18:13;;;;;;;1.40;1.40;;;23.30;52.90;;;;;;4979346;28;20579;-73
2022/07/14 04:20:40;;;;;;;1.60;1.50;;;23.30;52.90;;;;;;4980420;28;20670;-73
2022/07/14 04:23:07;;;;;;;1.75;1.30;;;23.30;53.00;;;;;;4979458;28;20221;-73
2022/07/14 04:25:35;;;;;;;1.77;1.60;;;23.30;52.90;;;;;;4979472;28;20649;-73
2022/07/14 04:28:04;;;;;;;1.65;1.55;;;23.30;53.00;;;;;;4979380;28;20208;-73
2022/07/14 04:30:31;;;;;;;1.60;1.50;;;23.30;53.00;;;;;;4996571;28;20204;-73
2022/07/14 04:32:59;;;;;;;1.50;1.40;;;23.30;53.10;;;;;;4979519;28;20193;-73
2022/07/14 04:35:26;;;;;;;1.40;1.30;;;23.30;53.20;;;;;;4979139;28;20288;-72
2022/07/14 04:37:53;;;;;;;1.40;1.30;;;23.30;53.20;;;;;;4979500;28;20205;-73
2022/07/14 04:40:25;;;;;;;1.50;1.40;;;23.30;53.30;;;;;;4979515;28;20206;-72
2022/07/14 04:42:52;;;;;;;1.60;1.40;;;23.20;53.10;;;;;;4978988;28;20231;-73
2022/07/14 04:45:22;;;;;;;1.60;1.50;;;23.20;53.20;;;;;;4978843;28;20285;-73
2022/07/14 04:47:49;;;;;;;1.50;1.40;;;23.20;53.30;;;;;;4978206;28;20194;-73
2022/07/14 04:53:01;;;;;;;1.60;1.50;;;23.30;53.40;;;;;;4979030;28;20185;-73
2022/07/14 04:55:45;;;;;;;1.50;1.40;;;23.40;52.90;;;;;;4979192;28;20737;-72
2022/07/14 04:58:25;;;;;;;1.80;1.30;;;23.70;52.40;;;;;;4978937;28;20620;-73
2022/07/14 05:00:58;;;;;;;1.50;1.40;;;23.90;51.70;;;;;;4978595;28;20312;-73
2022/07/14 05:03:26;;;;;;;1.40;1.30;;;24.20;51.20;;;;;;4978859;28;20228;-73
2022/07/14 05:05:53;;;;;;;1.55;1.45;;;24.40;50.70;;;;;;4978637;28;20206;-73
2022/07/14 05:08:21;;;;;;;1.92;1.33;;;24.60;50.20;;;;;;4978668;28;20642;-74
2022/07/14 05:10:50;;;;;;;2.20;1.48;;;24.80;49.60;;;;;;4978417;28;20693;-74
2022/07/14 05:13:17;;;;;;;1.50;1.40;;;25.00;49.40;;;;;;4978313;28;20205;-74
2022/07/14 05:15:45;;;;;;;1.50;1.40;;;25.10;49.00;;;;;;4978446;28;20193;-74
2022/07/14 05:18:13;;;;;;;1.20;1.10;;;25.30;48.60;;;;;;4978234;28;20252;-75
2022/07/14 05:20:41;;;;;;;1.17;1.15;;;25.40;48.30;;;;;;4978620;28;20252;-74
2022/07/14 05:23:09;;;;;;;1.50;1.40;;;25.60;48.00;;;;;;4978034;28;20207;-75
2022/07/14 05:25:37;;;;;;;1.25;1.15;;;25.60;47.70;;;;;;4978264;28;20194;-75
2022/07/14 05:28:05;;;;;;;1.48;1.38;;;25.80;47.50;;;;;;4978865;28;20205;-75
2022/07/14 05:30:37;;;;;;;2.33;1.30;;;25.90;47.30;;;;;;4977961;28;20698;-74
2022/07/14 05:33:05;;;;;;;1.40;1.40;;;26.00;47.00;;;;;;4977870;28;20193;-74
2022/07/14 05:35:39;;;;;;;1.55;1.45;;;26.10;46.80;;;;;;4977783;28;20221;-74
2022/07/14 05:38:07;;;;;;;1.48;1.38;;;26.20;46.50;;;;;;4977628;28;20669;-75
2022/07/14 05:40:34;;;;;;;1.60;1.50;;;26.30;46.30;;;;;;4977742;28;20206;-75
2022/07/14 05:43:02;;;;;;;1.65;1.55;;;26.40;46.10;;;;;;4977712;28;20197;-75
2022/07/14 05:45:29;;;;;;;1.42;1.38;;;26.50;46.10;;;;;;4977511;28;20694;-75
2022/07/14 05:47:56;;;;;;;1.30;1.20;;;26.60;45.90;;;;;;4977651;28;20252;-74
2022/07/14 05:50:23;;;;;;;1.13;1.13;;;26.60;45.60;;;;;;4977670;28;20193;-75
2022/07/14 05:52:51;;;;;;;1.85;1.35;;;26.70;45.50;;;;;;4977394;28;20218;-74
2022/07/14 05:55:21;;;;;;;1.45;1.35;;;26.70;45.30;;;;;;4977422;28;20197;-74
2022/07/14 05:57:48;;;;;;;1.65;1.30;;;26.80;45.20;;;;;;4977342;28;20206;-75
2022/07/14 06:00:16;;;;;;;1.52;1.42;;;26.80;45.00;;;;;;4977004;28;20673;-74
2022/07/14 06:02:45;;;;;;;1.30;1.20;;;26.90;44.90;;;;;;4977258;28;20217;-75
2022/07/14 06:05:18;;;;;;;1.30;1.20;;;27.00;44.90;;;;;;4977241;28;20219;-74
2022/07/14 06:07:45;;;;;;;1.40;1.30;;;27.10;44.80;;;;;;4977377;28;20204;-74
2022/07/14 06:10:13;;;;;;;1.55;1.35;;;27.00;44.70;;;;;;4977151;28;20197;-74
2022/07/14 06:12:43;;;;;;;1.33;1.23;;;27.10;44.70;;;;;;4977233;28;20224;-75
2022/07/14 06:15:11;;;;;;;1.70;1.60;;;27.10;44.60;;;;;;4977074;28;20201;-75
2022/07/14 06:17:40;;;;;;;1.67;1.45;;;27.10;44.50;;;;;;4977394;28;20250;-75
2022/07/14 06:20:08;;;;;;;3.10;1.60;;;27.10;44.50;;;;;;4977416;28;20229;-74
2022/07/14 06:22:41;;;;;;;1.40;1.30;;;27.20;44.40;;;;;;4977454;28;20235;-74
2022/07/14 06:25:08;;;;;;;1.58;1.30;;;27.30;44.30;;;;;;4977125;28;20515;-74
2022/07/14 06:27:37;;;;;;;1.40;1.30;;;27.30;44.20;;;;;;4977136;28;20201;-74
2022/07/14 06:30:06;;;;;;;1.50;1.35;;;27.30;44.20;;;;;;4976793;28;20581;-74
2022/07/14 06:32:33;;;;;;;1.75;1.40;;;27.40;44.40;;;;;;4976791;28;20228;-75
2022/07/14 06:35:02;;;;;;;1.30;1.20;;;27.40;44.30;;;;;;4976977;28;20212;-74
2022/07/14 06:37:30;;;;;;;1.23;1.20;;;27.40;44.20;;;;;;4976883;28;20561;-74
2022/07/14 06:40:03;;;;;;;1.50;1.40;;;27.40;44.20;;;;;;4976944;28;20193;-74
2022/07/14 06:42:30;;;;;;;1.30;1.30;;;27.40;44.30;;;;;;4976972;28;20217;-74
2022/07/14 06:45:15;;;;;;;1.50;1.40;;;27.40;44.50;;;;;;4977210;28;20217;-74
2022/07/14 06:47:45;;;;;;;1.45;1.33;;;27.40;44.40;;;;;;4977230;28;20228;-74
2022/07/14 06:50:12;;;;;;;2.20;1.50;;;27.50;44.50;;;;;;4976922;28;20221;-73
2022/07/14 06:52:39;;;;;;;1.50;1.40;;;27.50;44.50;;;;;;4976523;28;20225;-73
2022/07/14 06:55:07;;;;;;;2.20;1.60;;;27.50;44.50;;;;;;4976594;28;20279;-74
2022/07/14 06:57:34;;;;;;;2.13;1.75;;;27.60;44.50;;;;;;4977472;28;20197;-74
2022/07/14 07:00:03;;;;;;;1.60;1.50;;;27.60;44.50;;;;;;4976591;28;20690;-74
2022/07/14 07:02:32;;;;;;;1.98;1.60;;;27.60;44.70;;;;;;4976611;28;20217;-74
2022/07/14 07:07:44;;;;;;;2.78;1.50;;;27.70;44.90;;;;;;4976843;28;20630;-74
2022/07/14 07:10:11;;;;;;;1.65;1.50;;;27.70;44.30;;;;;;4976850;28;20207;-74
2022/07/14 07:12:38;;;;;;;1.85;1.60;;;27.80;44.40;;;;;;4976126;28;20220;-74
2022/07/14 07:15:06;;;;;;;2.17;1.55;;;27.90;44.40;;;;;;4977378;28;20251;-74
2022/07/14 07:17:35;;;;;;;1.98;1.80;;;27.90;44.30;;;;;;4976870;28;20307;-74
2022/07/14 07:20:02;;;;;;;4.45;1.88;;;27.90;44.70;;;;;;4976848;28;20730;-74
2022/07/14 07:22:29;;;;;;;2.22;1.70;;;27.90;44.30;;;;;;4993962;28;20251;-74
2022/07/14 07:24:57;;;;;;;1.83;1.67;;;28.00;44.20;;;;;;4976578;28;20307;-74
2022/07/14 07:27:24;;;;;;;2.92;1.58;;;28.00;44.80;;;;;;4976708;28;20207;-74
2022/07/14 07:29:51;;;;;;;2.50;1.80;;;28.00;44.20;;;;;;4995640;28;20193;-74
2022/07/14 07:32:18;;;;;;;2.60;1.65;;;28.00;44.00;;;;;;4977808;28;20216;-75
2022/07/14 07:34:47;;;;;;;2.15;1.73;;;28.00;44.00;;;;;;4995250;28;20189;-74
2022/07/14 07:37:14;;;;;;;1.70;1.52;;;28.10;44.30;;;;;;4977256;28;20299;-74
2022/07/14 07:39:41;;;;;;;2.33;1.63;;;28.20;44.30;;;;;;4976649;28;20664;-75
2022/07/14 07:42:08;;;;;;;2.22;1.80;;;28.10;44.30;;;;;;4976867;28;20212;-74
2022/07/14 07:44:36;;;;;;;1.70;1.50;;;28.10;44.20;;;;;;4977797;28;20259;-74
2022/07/14 07:47:03;;;;;;;2.72;1.48;;;28.00;44.60;;;;;;4977272;28;20193;-74
2022/07/14 07:49:30;;;;;;;4.63;1.67;;;27.90;44.60;;;;;;4977831;28;20216;-74
2022/07/14 07:51:59;;;;;;;3.03;1.58;;;27.90;44.70;;;;;;4977016;28;20216;-74
2022/07/14 07:54:27;;;;;;;5.85;1.88;;;27.80;45.00;;;;;;4976704;28;20212;-75
2022/07/14 07:56:54;;;;;;;2.25;1.60;;;27.80;45.20;;;;;;4976605;28;20203;-75
2022/07/14 07:59:21;;;;;;;2.38;1.77;;;27.90;45.30;;;;;;4976511;28;20193;-74
2022/07/14 08:01:48;;;;;;;2.25;1.50;;;28.00;45.60;;;;;;4976404;28;20323;-74
2022/07/14 08:04:15;;;;;;;2.03;1.60;;;28.10;45.10;;;;;;4976299;28;20268;-74
2022/07/14 08:06:42;;;;;;;1.90;1.73;;;28.20;45.00;;;;;;4993552;28;20200;-74
2022/07/14 08:09:12;;;;;;;3.00;1.88;;;28.30;44.80;;;;;;4993705;28;20243;-75
2022/07/14 08:11:40;;;;;;;2.28;1.63;;;28.50;44.60;;;;;;4976108;28;20279;-75
2022/07/14 08:14:47;;;;;;;2.92;1.73;;;28.50;44.40;;;;;;4975977;28;20670;-75
2022/07/14 08:16:54;;;;;;;1.60;1.50;;;28.60;44.30;;;;;;4975693;28;20208;-75
2022/07/14 08:19:22;;;;;;;2.63;1.80;;;28.60;43.90;;;;;;4976164;28;20681;-74
2022/07/14 08:21:49;;;;;;;2.22;1.75;;;28.70;43.90;;;;;;4975505;28;20221;-75
2022/07/14 08:24:18;;;;;;;1.75;1.60;;;28.80;43.70;;;;;;4978972;28;20228;-74
2022/07/14 08:26:45;;;;;;;2.47;1.70;;;28.80;43.40;;;;;;4979413;28;20207;-74
2022/07/14 08:29:12;;;;;;;2.72;1.50;;;28.80;43.40;;;;;;4979291;28;20200;-74
2022/07/14 08:31:39;;;;;;;3.22;1.67;;;28.80;43.60;;;;;;4979406;28;20702;-73
2022/07/14 08:34:06;;;;;;;2.20;1.60;;;28.80;43.90;;;;;;4979124;28;20574;-73
2022/07/14 08:36:33;;;;;;;1.90;1.70;;;28.70;43.80;;;;;;4979192;28;20192;-73
2022/07/14 08:39:01;;;;;;;2.00;1.58;;;28.70;44.00;;;;;;4979082;28;20568;-73
2022/07/14 08:41:29;;;;;;;3.08;1.55;;;28.70;44.10;;;;;;4996346;28;20735;-73
2022/07/14 08:43:56;;;;;;;1.65;1.55;;;28.60;44.10;;;;;;4979000;28;20201;-72
2022/07/14 08:46:24;;;;;;;1.60;1.50;;;28.60;44.20;;;;;;4978874;28;20321;-73
2022/07/14 08:48:51;;;;;;;3.20;1.73;;;28.60;44.20;;;;;;4996353;28;20189;-73
2022/07/14 08:51:19;;;;;;;1.60;1.50;;;28.50;44.30;;;;;;4979091;28;20245;-73
2022/07/14 08:53:46;;;;;;;2.78;1.45;;;28.50;44.30;;;;;;4979058;28;20193;-73
2022/07/14 08:56:13;;;;;;;3.13;1.85;;;28.40;44.40;;;;;;4978689;28;20203;-72
2022/07/14 08:58:42;;;;;;;3.53;1.73;;;28.50;44.20;;;;;;4978781;28;20197;-73
2022/07/14 09:01:09;;;;;;;1.88;1.63;;;28.60;44.10;;;;;;4978639;28;20227;-73
2022/07/14 09:03:36;;;;;;;1.65;1.55;;;28.60;43.90;;;;;;4978637;28;20201;-72
2022/07/14 09:06:04;;;;;;;2.35;1.55;;;28.70;43.80;;;;;;4978440;28;20694;-73
2022/07/14 09:08:31;;;;;;;2.30;1.50;;;28.70;43.70;;;;;;4978321;28;20625;-73
2022/07/14 09:10:59;;;;;;;1.92;1.73;;;28.70;43.70;;;;;;4978506;28;20299;-72
2022/07/14 09:13:26;;;;;;;2.22;1.40;;;28.70;43.70;;;;;;4995853;28;20219;-73
2022/07/14 09:16:14;;;;;;;2.33;1.58;;;28.70;43.70;;;;;;4995901;28;20192;-72
2022/07/14 09:18:41;;;;;;;1.50;1.40;;;28.70;43.70;;;;;;4978415;28;20189;-72
2022/07/14 09:21:19;;;;;;;1.50;1.40;;;28.70;43.70;;;;;;4978063;28;20227;-72
2022/07/14 09:23:46;;;;;;;1.60;1.50;;;28.70;43.80;;;;;;4978441;28;20188;-73
2022/07/14 09:26:14;;;;;;;1.90;1.40;;;28.70;43.70;;;;;;4978446;28;20315;-73
2022/07/14 09:28:41;;;;;;;2.67;1.60;;;28.70;43.70;;;;;;4978183;28;20200;-72
2022/07/14 09:31:23;;;;;;;2.35;1.50;;;28.70;43.70;;;;;;4995546;28;20213;-73
2022/07/14 09:33:51;;;;;;;2.05;1.50;;;28.70;43.80;;;;;;4977904;28;20201;-73
2022/07/14 09:36:23;;;;;;;2.10;1.70;;;28.70;43.80;;;;;;4977779;28;20196;-72
2022/07/14 09:38:51;;;;;;;1.60;1.50;;;28.70;43.80;;;;;;4978117;28;20200;-73
2022/07/14 09:41:18;;;;;;;1.60;1.40;;;28.70;43.80;;;;;;4977975;28;20221;-73
2022/07/14 09:44:06;;;;;;;1.85;1.70;;;28.70;43.80;;;;;;4995695;28;20193;-73
2022/07/14 09:46:48;;;;;;;2.72;1.40;;;28.70;44.00;;;;;;4977969;28;20213;-73
2022/07/14 09:49:16;;;;;;;3.40;1.55;;;28.60;43.90;;;;;;4995268;28;20592;-73
2022/07/14 09:51:56;;;;;;;2.72;1.70;;;28.60;44.20;;;;;;4978388;28;20224;-73
2022/07/14 09:54:46;;;;;;;2.25;1.50;;;28.60;44.20;;;;;;4979443;28;20196;-72
2022/07/14 09:57:25;;;;;;;2.08;1.50;;;28.60;44.40;;;;;;4995616;28;20189;-72
2022/07/14 09:59:53;;;;;;;1.52;1.42;;;28.60;44.30;;;;;;4978028;28;20196;-72
2022/07/14 10:02:23;;;;;;;2.17;1.60;;;28.60;44.50;;;;;;4995251;28;20287;-72
2022/07/14 10:04:50;;;;;;;1.73;1.50;;;28.70;44.40;;;;;;4997393;28;20299;-73
2022/07/14 10:07:17;;;;;;;2.22;1.60;;;28.70;44.40;;;;;;4979361;28;20232;-72
2022/07/14 10:09:47;;;;;;;2.97;1.42;;;28.70;44.50;;;;;;4978068;28;20212;-73
2022/07/14 10:12:14;;;;;;;1.40;1.30;;;28.70;44.50;;;;;;4977873;28;20216;-72
2022/07/14 10:14:41;;;;;;;2.30;1.30;;;28.70;44.60;;;;;;4977681;28;20205;-73
2022/07/14 10:17:08;;;;;;;2.58;1.92;;;28.70;44.90;;;;;;4995165;28;20199;-73
2022/07/14 10:19:37;;;;;;;1.50;1.40;;;28.60;44.90;;;;;;4977509;28;20723;-72
2022/07/14 10:22:04;;;;;;;1.40;1.30;;;28.70;45.00;;;;;;4977419;28;20247;-73
2022/07/14 10:24:31;;;;;;;1.58;1.20;;;28.60;44.90;;;;;;4977332;28;20308;-72
2022/07/14 10:26:58;;;;;;;1.35;1.25;;;28.60;45.00;;;;;;4977841;28;20247;-72
2022/07/14 10:29:25;;;;;;;1.70;1.48;;;28.50;45.10;;;;;;4994599;28;20188;-73
2022/07/14 10:32:05;;;;;;;1.73;1.30;;;28.50;45.20;;;;;;4976969;28;20276;-73
2022/07/14 10:34:38;;;;;;;3.22;1.58;;;28.40;45.30;;;;;;4977059;28;20195;-72
2022/07/14 10:37:09;;;;;;;1.67;1.58;;;28.40;45.40;;;;;;4994762;28;20180;-73
2022/07/14 10:39:38;;;;;;;2.00;1.50;;;28.40;45.40;;;;;;4976866;28;20225;-73
2022/07/14 10:42:12;;;;;;;1.75;1.50;;;28.40;45.40;;;;;;4976807;28;20216;-72
2022/07/14 10:44:40;;;;;;;1.50;1.40;;;28.40;45.40;;;;;;4976743;28;20200;-73
2022/07/14 10:47:08;;;;;;;1.75;1.65;;;28.40;45.40;;;;;;4993445;28;20276;-73
2022/07/14 10:50:06;;;;;;;1.63;1.40;;;28.30;45.40;;;;;;4976654;28;20212;-73
2022/07/14 10:52:34;;;;;;;2.63;1.40;;;28.30;45.40;;;;;;4981694;28;20695;-72
2022/07/14 10:55:14;;;;;;;1.77;1.45;;;28.30;45.40;;;;;;4976989;28;20296;-72
2022/07/14 10:58:15;;;;;;;2.30;1.40;;;28.30;45.50;;;;;;4976762;28;20197;-72
2022/07/14 11:00:56;;;;;;;1.58;1.30;;;28.30;45.30;;;;;;4976717;28;20650;-72
2022/07/14 11:03:25;;;;;;;1.42;1.33;;;28.30;45.50;;;;;;4976741;28;20223;-72
2022/07/14 11:06:15;;;;;;;1.67;1.20;;;28.20;45.50;;;;;;4993861;28;20294;-73
2022/07/14 11:08:44;;;;;;;2.17;1.30;;;28.20;45.50;;;;;;4976714;28;20197;-73
2022/07/14 11:11:17;;;;;;;1.63;1.50;;;28.20;45.50;;;;;;4994759;28;20551;-72
2022/07/14 11:14:12;;;;;;;1.58;1.48;;;28.20;45.60;;;;;;4976738;28;20189;-73
2022/07/14 11:16:56;;;;;;;1.67;1.55;;;28.20;45.70;;;;;;4994369;28;20212;-72
2022/07/14 11:19:23;;;;;;;2.38;1.27;;;28.10;45.60;;;;;;4976833;28;20228;-72
2022/07/14 11:22:11;;;;;;;4.18;1.42;;;28.10;45.70;;;;;;4976484;28;20286;-73
2022/07/14 11:24:45;;;;;;;1.70;1.60;;;28.10;45.60;;;;;;4976633;28;20577;-73
2022/07/14 11:27:26;;;;;;;1.50;1.40;;;28.10;45.60;;;;;;4976811;28;20614;-73
2022/07/14 11:29:53;;;;;;;1.60;1.35;;;28.20;45.70;;;;;;4976885;28;20192;-73
2022/07/14 11:32:31;;;;;;;1.30;1.20;;;28.10;45.60;;;;;;4976827;28;20223;-73
2022/07/14 11:37:59;;;;;;;1.80;1.58;;;28.10;45.60;;;;;;4977925;28;20654;-72
2022/07/14 11:40:53;;;;;;;4.25;1.40;;;28.10;46.00;;;;;;4977054;28;20287;-73
2022/07/14 11:43:39;;;;;;;4.38;1.50;;;28.00;46.60;;;;;;4943109;28;20207;-73
2022/07/14 11:46:07;;;;;;;1.77;1.40;;;28.00;46.60;;;;;;4976438;28;20592;-73
2022/07/14 11:48:36;;;;;;;2.13;1.30;;;28.00;46.40;;;;;;4993953;28;20189;-73
2022/07/14 11:51:04;;;;;;;1.80;1.38;;;28.00;46.60;;;;;;4976374;28;20247;-72
2022/07/14 11:53:33;;;;;;;1.30;1.20;;;28.00;46.60;;;;;;4976391;28;20623;-73
2022/07/14 11:56:01;;;;;;;1.40;1.30;;;28.00;46.70;;;;;;4993779;28;20251;-72
2022/07/14 11:58:28;;;;;;;2.97;1.40;;;28.00;46.60;;;;;;4995773;28;20196;-73
2022/07/14 12:00:56;;;;;;;2.00;1.38;;;28.00;46.60;;;;;;4994636;22;20228;-69
2022/07/14 12:03:25;;;;;;;1.73;1.30;;;28.00;46.70;;;;;;4997185;28;20185;-69
2022/07/14 12:05:52;;;;;;;1.33;1.20;;;27.90;46.60;;;;;;4979688;28;20534;-69
2022/07/14 12:08:24;;;;;;;1.75;1.17;;;27.90;46.70;;;;;;5099449;22;20299;-71
2022/07/14 12:10:53;;;;;;;2.20;1.35;;;27.90;46.90;;;;;;4980060;28;20697;-71
2022/07/14 12:13:20;;;;;;;3.28;1.40;;;27.80;46.80;;;;;;4980346;28;20204;-71
2022/07/14 12:15:48;;;;;;;2.10;1.17;;;27.90;47.00;;;;;;4979792;28;20189;-71
2022/07/14 12:18:15;;;;;;;2.65;1.40;;;27.80;47.40;;;;;;4998677;28;20380;-72
2022/07/14 12:20:43;;;;;;;2.47;1.30;;;27.80;47.50;;;;;;4979634;28;20300;-71
2022/07/14 12:23:11;;;;;;;1.63;1.33;;;27.80;47.60;;;;;;4979270;28;20224;-71
2022/07/14 12:25:39;;;;;;;1.58;1.48;;;27.80;47.70;;;;;;4979256;28;20223;-71
2022/07/14 12:28:09;;;;;;;1.42;1.33;;;27.80;47.60;;;;;;4996929;28;20193;-71
2022/07/14 12:30:47;;;;;;;2.70;1.50;;;27.80;47.40;;;;;;4997172;28;20243;-71
2022/07/14 12:33:15;;;;;;;2.00;1.50;;;27.80;47.60;;;;;;4979688;28;20259;-71
2022/07/14 12:35:42;;;;;;;1.45;1.35;;;27.80;47.80;;;;;;4996681;28;20189;-71
2022/07/14 12:38:10;;;;;;;1.50;1.40;;;27.70;47.60;;;;;;4979212;28;20208;-71
2022/07/14 12:40:37;;;;;;;1.30;1.20;;;27.70;47.80;;;;;;4979589;28;20208;-71
2022/07/14 12:43:04;;;;;;;1.95;1.38;;;27.70;47.80;;;;;;4996626;28;20192;-71
2022/07/14 12:45:33;;;;;;;2.72;1.48;;;27.70;47.80;;;;;;4996405;28;20220;-71
2022/07/14 12:48:03;;;;;;;1.40;1.30;;;27.70;47.80;;;;;;4978867;28;20207;-71
2022/07/14 12:50:30;;;;;;;1.30;1.20;;;27.70;47.80;;;;;;4978883;28;20197;-71
2022/07/14 12:52:57;;;;;;;1.63;1.10;;;27.70;47.70;;;;;;4978675;28;20208;-71
2022/07/14 12:55:34;;;;;;;2.03;1.27;;;27.70;47.70;;;;;;4978987;28;20208;-71
2022/07/14 12:58:05;;;;;;;1.30;1.20;;;27.70;47.80;;;;;;4978756;28;20231;-71
2022/07/14 13:00:34;;;;;;;1.30;1.20;;;27.70;47.80;;;;;;4978470;28;20721;-71
2022/07/14 13:03:22;;;;;;;1.60;1.50;;;27.70;47.80;;;;;;4978685;28;20203;-71
2022/07/14 13:05:53;;;;;;;1.58;1.42;;;27.70;47.80;;;;;;4974607;28;20220;-71
2022/07/14 13:08:36;;;;;;;1.73;1.10;;;27.70;47.80;;;;;;4978607;28;20204;-71
2022/07/14 13:11:04;;;;;;;1.30;1.20;;;27.70;47.80;;;;;;4977998;28;20221;-71
2022/07/14 13:13:33;;;;;;;1.50;1.40;;;27.70;47.80;;;;;;4995964;28;20192;-71